Time;durP1;ratioP1;P1;durP2;ratioP2;P2;SDS_P1;SDS_P2;PMS_P1;PMS_P2;Temp;Humidity;BMP_temperature;BMP_pressure;BME280_temperature;BME280_humidity;BME280_pressure;Samples;Min_cycle;Max_cycle;Signal;HPM_P1;HPM_P2
2023/07/29 00:00:10;;;;;;;5.72;2.00;;;;;19.70;97992.00;;;;5094115;28;20493;-63
2023/07/29 00:02:40;;;;;;;3.45;2.38;;;;;19.70;97990.00;;;;5093126;28;20040;-64
2023/07/29 00:05:07;;;;;;;2.60;2.10;;;;;19.70;97989.00;;;;5094092;28;20123;-63
2023/07/29 00:07:33;;;;;;;2.90;2.03;;;;;19.70;97989.00;;;;5094171;28;20052;-62
2023/07/29 00:10:00;;;;;;;4.43;2.33;;;;;19.60;97988.00;;;;5092294;28;20047;-63
2023/07/29 00:12:27;;;;;;;3.38;2.25;;;;;19.60;97979.00;;;;5093569;28;20044;-63
2023/07/29 00:14:53;;;;;;;4.15;2.00;;;;;19.50;97978.00;;;;5094196;28;20047;-62
2023/07/29 00:17:20;;;;;;;5.53;1.77;;;;;19.50;97977.00;;;;5093772;28;20039;-62
2023/07/29 00:19:47;;;;;;;4.43;1.63;;;;;19.40;97981.00;;;;5092412;28;20055;-62
2023/07/29 00:22:16;;;;;;;2.88;1.88;;;;;19.40;97978.00;;;;5093526;28;20043;-62
2023/07/29 00:24:43;;;;;;;4.82;2.30;;;;;19.50;97979.00;;;;5092266;28;20052;-63
2023/07/29 00:27:09;;;;;;;4.30;2.05;;;;;19.50;97981.00;;;;5092359;28;20044;-62
2023/07/29 00:29:36;;;;;;;6.53;2.20;;;;;19.60;97973.00;;;;5092136;28;20482;-62
2023/07/29 00:32:03;;;;;;;2.70;1.90;;;;;19.60;97972.00;;;;5093483;28;20047;-62
2023/07/29 00:34:30;;;;;;;2.45;2.25;;;;;19.60;97974.00;;;;5092189;28;20520;-61
2023/07/29 00:36:57;;;;;;;5.90;2.05;;;;;19.60;97974.00;;;;5075311;28;20047;-62
2023/07/29 00:39:24;;;;;;;9.27;2.55;;;;;19.60;97961.00;;;;5075003;28;20075;-62
2023/07/29 00:41:51;;;;;;;4.65;2.33;;;;;19.60;97965.00;;;;5091750;28;20460;-62
2023/07/29 00:44:17;;;;;;;2.83;1.80;;;;;19.50;97965.00;;;;5091990;28;20134;-62
2023/07/29 00:46:45;;;;;;;2.75;2.15;;;;;19.50;97971.00;;;;5093168;28;20040;-62
2023/07/29 00:49:12;;;;;;;3.40;1.77;;;;;19.50;97962.00;;;;5091732;28;20098;-64
2023/07/29 00:51:40;;;;;;;3.92;1.95;;;;;19.50;97964.00;;;;5092876;28;20040;-62
2023/07/29 00:54:07;;;;;;;3.58;1.98;;;;;19.40;97955.00;;;;5091794;28;20054;-62
2023/07/29 00:56:34;;;;;;;4.22;1.92;;;;;19.40;97959.00;;;;5091105;28;20101;-62
2023/07/29 00:59:02;;;;;;;3.47;1.90;;;;;19.30;97951.00;;;;5091569;28;20047;-62
2023/07/29 01:01:29;;;;;;;3.50;1.90;;;;;19.30;97954.00;;;;5092568;28;20093;-61
2023/07/29 01:03:56;;;;;;;3.42;2.30;;;;;19.40;97948.00;;;;5092826;28;20093;-62
2023/07/29 01:06:37;;;;;;;2.88;2.13;;;;;19.50;97955.00;;;;5091354;28;20642;-63
2023/07/29 01:09:16;;;;;;;3.33;2.08;;;;;19.60;97953.00;;;;5091075;28;20052;-62
2023/07/29 01:11:56;;;;;;;3.50;2.20;;;;;19.70;97951.00;;;;5091098;28;20066;-62
2023/07/29 01:14:25;;;;;;;3.20;2.45;;;;;19.70;97947.00;;;;5091420;28;20052;-62
2023/07/29 01:16:55;;;;;;;6.35;1.85;;;;;19.80;97946.00;;;;5092526;28;20055;-62
2023/07/29 01:19:44;;;;;;;2.47;1.88;;;;;19.80;97944.00;;;;5092426;28;20050;-62
2023/07/29 01:22:12;;;;;;;3.03;1.70;;;;;19.80;97940.00;;;;5092526;28;20456;-62
2023/07/29 01:24:39;;;;;;;2.55;1.30;;;;;19.80;97941.00;;;;5091434;28;20090;-62
2023/07/29 01:27:05;;;;;;;2.15;1.40;;;;;19.80;97940.00;;;;5090925;28;20097;-62
2023/07/29 01:29:32;;;;;;;1.98;1.60;;;;;19.80;97943.00;;;;5090929;28;20086;-62
2023/07/29 01:32:07;;;;;;;2.78;1.40;;;;;19.90;97942.00;;;;5090955;28;20488;-62
2023/07/29 01:35:07;;;;;;;2.35;1.58;;;;;20.00;97940.00;;;;5092420;28;20047;-62
2023/07/29 01:37:35;;;;;;;1.75;1.52;;;;;20.00;97938.00;;;;5091034;28;20732;-62
2023/07/29 01:40:02;;;;;;;5.00;1.85;;;;;20.00;97942.00;;;;5092136;28;20040;-62
2023/07/29 01:42:29;;;;;;;4.80;1.45;;;;;20.00;97940.00;;;;5091006;28;20044;-62
2023/07/29 01:44:56;;;;;;;1.65;1.55;;;;;20.10;97940.00;;;;5090972;28;20052;-62
2023/07/29 01:47:24;;;;;;;3.20;1.90;;;;;20.10;97939.00;;;;5092255;28;20055;-62
2023/07/29 01:49:54;;;;;;;2.75;1.40;;;;;20.10;97939.00;;;;5092475;28;20389;-62
2023/07/29 01:52:20;;;;;;;3.78;1.60;;;;;20.10;97936.00;;;;5092469;28;20044;-62
2023/07/29 01:54:47;;;;;;;1.45;1.15;;;;;20.10;97936.00;;;;5090760;28;20131;-63
2023/07/29 01:57:13;;;;;;;1.50;1.40;;;;;20.10;97941.00;;;;5090424;28;20054;-63
2023/07/29 01:59:40;;;;;;;2.25;1.35;;;;;20.10;97937.00;;;;5090516;28;20040;-63
2023/07/29 02:02:07;;;;;;;2.75;1.40;;;;;20.10;97940.00;;;;5090617;28;20054;-64
2023/07/29 02:04:34;;;;;;;1.52;1.20;;;;;20.20;97934.00;;;;5074047;28;20580;-63
2023/07/29 02:07:01;;;;;;;1.48;1.38;;;;;20.20;97933.00;;;;5090729;28;20513;-63
2023/07/29 02:09:27;;;;;;;1.70;1.50;;;;;20.20;97933.00;;;;5094715;28;20114;-63
2023/07/29 02:11:54;;;;;;;5.07;1.40;;;;;20.30;97920.00;;;;5094817;28;20082;-63
2023/07/29 02:14:21;;;;;;;1.80;1.30;;;;;20.30;97913.00;;;;5096018;28;20579;-63
2023/07/29 02:16:47;;;;;;;1.40;1.30;;;;;20.30;97920.00;;;;5094842;28;20113;-63
2023/07/29 02:19:14;;;;;;;3.03;1.50;;;;;20.30;97918.00;;;;5094603;28;20051;-64
2023/07/29 02:21:41;;;;;;;3.03;1.63;;;;;20.30;97921.00;;;;5096089;28;20453;-64
2023/07/29 02:24:07;;;;;;;2.05;1.38;;;;;20.30;97917.00;;;;5096111;28;20047;-64
2023/07/29 02:26:34;;;;;;;1.35;1.25;;;;;20.30;97911.00;;;;5096011;28;20039;-64
2023/07/29 02:29:01;;;;;;;3.88;1.63;;;;;20.30;97924.00;;;;5094499;28;20135;-64
2023/07/29 02:31:27;;;;;;;1.45;1.27;;;;;20.30;97915.00;;;;5095399;28;20418;-64
2023/07/29 02:33:55;;;;;;;1.88;1.48;;;;;20.30;97912.00;;;;5094358;28;20409;-64
2023/07/29 02:36:22;;;;;;;2.90;1.25;;;;;20.30;97921.00;;;;5094968;28;20048;-64
2023/07/29 02:38:49;;;;;;;3.45;1.50;;;;;20.30;97911.00;;;;5094614;28;20044;-64
2023/07/29 02:41:16;;;;;;;1.25;1.15;;;;;20.40;97907.00;;;;5094174;28;20517;-64
2023/07/29 02:43:43;;;;;;;3.25;1.45;;;;;20.40;97902.00;;;;5095776;28;20043;-63
2023/07/29 02:46:10;;;;;;;2.90;1.40;;;;;20.40;97896.00;;;;5094233;28;20151;-64
2023/07/29 02:48:36;;;;;;;2.88;1.50;;;;;20.40;97892.00;;;;5095192;28;20567;-63
2023/07/29 02:51:03;;;;;;;1.40;1.30;;;;;20.40;97905.00;;;;5095627;28;20040;-64
2023/07/29 02:53:30;;;;;;;1.60;1.35;;;;;20.40;97911.00;;;;5095795;28;20118;-64
2023/07/29 02:55:56;;;;;;;2.67;1.63;;;;;20.30;97917.00;;;;5095631;28;20070;-63
2023/07/29 02:58:23;;;;;;;4.93;1.42;;;;;20.40;97928.00;;;;5094285;28;20444;-64
2023/07/29 03:00:50;;;;;;;1.92;1.60;;;;;20.40;97920.00;;;;5096128;28;20085;-64
2023/07/29 03:03:19;;;;;;;1.48;1.20;;;;;20.40;97920.00;;;;5094086;28;20051;-64
2023/07/29 03:05:46;;;;;;;1.35;1.10;;;;;20.40;97911.00;;;;5094412;28;20044;-64
2023/07/29 03:08:13;;;;;;;4.03;1.33;;;;;20.40;97906.00;;;;5094571;28;20583;-64
2023/07/29 03:10:39;;;;;;;1.58;1.48;;;;;20.40;97905.00;;;;5093719;28;20557;-64
2023/07/29 03:13:06;;;;;;;2.22;1.50;;;;;20.40;97903.00;;;;5093562;28;20408;-64
2023/07/29 03:15:34;;;;;;;2.88;1.60;;;;;20.40;97887.00;;;;5093728;28;20044;-64
2023/07/29 03:18:01;;;;;;;2.15;1.20;;;;;20.40;97891.00;;;;5094994;28;20039;-64
2023/07/29 03:20:28;;;;;;;2.00;1.20;;;;;20.40;97893.00;;;;5094151;28;20087;-64
2023/07/29 03:22:54;;;;;;;3.67;1.35;;;;;20.40;97890.00;;;;5093876;28;20055;-64
2023/07/29 03:25:21;;;;;;;5.35;1.55;;;;;20.40;97886.00;;;;5093709;28;20117;-64
2023/07/29 03:27:49;;;;;;;2.53;1.55;;;;;20.40;97889.00;;;;5094566;28;20551;-64
2023/07/29 03:30:20;;;;;;;3.78;1.20;;;;;20.40;97891.00;;;;5094724;28;20070;-64
2023/07/29 03:32:46;;;;;;;2.10;1.30;;;;;20.40;97894.00;;;;5094349;28;20040;-64
2023/07/29 03:35:13;;;;;;;12.93;1.92;;;;;20.40;97886.00;;;;5095383;28;20489;-64
2023/07/29 03:37:40;;;;;;;2.65;1.45;;;;;20.40;97888.00;;;;5095659;28;20154;-69
2023/07/29 03:40:09;;;;;;;1.65;1.55;;;;;20.40;97884.00;;;;5093645;28;20097;-64
2023/07/29 03:42:36;;;;;;;4.15;1.60;;;;;20.40;97883.00;;;;5095020;28;20044;-64
2023/07/29 03:45:03;;;;;;;1.50;1.40;;;;;20.40;97887.00;;;;5095317;28;20101;-64
2023/07/29 03:47:29;;;;;;;2.78;1.30;;;;;20.50;97883.00;;;;5093046;28;20044;-64
2023/07/29 03:49:58;;;;;;;2.70;1.58;;;;;20.50;97869.00;;;;5093018;28;20450;-64
2023/07/29 03:52:24;;;;;;;1.90;1.55;;;;;20.40;97867.00;;;;5092854;28;20076;-65
2023/07/29 03:54:51;;;;;;;2.95;1.65;;;;;20.50;97859.00;;;;5094246;28;20463;-64
2023/07/29 03:57:18;;;;;;;2.67;1.85;;;;;20.40;97862.00;;;;5092724;28;21103;-65
2023/07/29 03:59:44;;;;;;;1.80;1.38;;;;;20.40;97871.00;;;;5093824;28;20127;-65
2023/07/29 04:02:11;;;;;;;1.80;1.70;;;;;20.40;97868.00;;;;5093081;28;20454;-64
2023/07/29 04:04:38;;;;;;;3.08;1.60;;;;;20.40;97871.00;;;;5075910;28;20048;-65
2023/07/29 04:07:05;;;;;;;2.38;1.50;;;;;20.40;97864.00;;;;5092744;28;20610;-65
2023/07/29 04:09:32;;;;;;;1.65;1.55;;;;;20.40;97858.00;;;;5092590;28;20050;-64
2023/07/29 04:11:59;;;;;;;3.63;2.17;;;;;20.40;97861.00;;;;5092445;28;20489;-64
2023/07/29 04:14:25;;;;;;;1.98;1.50;;;;;20.40;97868.00;;;;5092648;28;20044;-64
2023/07/29 04:16:52;;;;;;;2.83;1.80;;;;;20.50;97862.00;;;;5093972;28;20123;-64
2023/07/29 04:19:18;;;;;;;2.65;2.13;;;;;20.50;97853.00;;;;5092233;28;20040;-64
2023/07/29 04:21:46;;;;;;;3.30;2.05;;;;;20.50;97861.00;;;;5092487;28;20128;-64
2023/07/29 04:24:13;;;;;;;1.90;1.35;;;;;20.50;97862.00;;;;5093799;28;20046;-64
2023/07/29 04:26:39;;;;;;;3.85;2.22;;;;;20.50;97865.00;;;;5091731;28;20482;-65
2023/07/29 04:29:06;;;;;;;3.30;2.05;;;;;20.50;97870.00;;;;5093498;28;20044;-65
2023/07/29 04:31:32;;;;;;;3.20;1.70;;;;;20.50;97873.00;;;;5091450;28;20044;-64
2023/07/29 04:33:59;;;;;;;2.08;1.77;;;;;20.50;97874.00;;;;5093395;28;20040;-65
2023/07/29 04:36:26;;;;;;;2.80;1.55;;;;;20.50;97874.00;;;;5093510;28;20048;-65
2023/07/29 04:38:52;;;;;;;2.38;1.50;;;;;20.50;97872.00;;;;5091996;28;20102;-64
2023/07/29 04:41:19;;;;;;;2.00;1.80;;;;;20.50;97870.00;;;;5090996;28;20135;-64
2023/07/29 04:43:46;;;;;;;2.47;1.60;;;;;20.60;97876.00;;;;5091302;28;20059;-64
2023/07/29 04:46:12;;;;;;;2.25;2.05;;;;;20.60;97872.00;;;;5092951;28;20075;-64
2023/07/29 04:48:39;;;;;;;5.10;2.70;;;;;20.60;97880.00;;;;5091649;28;20047;-64
2023/07/29 04:51:06;;;;;;;2.00;1.70;;;;;20.60;97878.00;;;;5091696;28;20090;-65
2023/07/29 04:53:34;;;;;;;3.25;1.95;;;;;20.60;97885.00;;;;5091677;28;20040;-64
2023/07/29 04:56:02;;;;;;;1.77;1.60;;;;;20.60;97887.00;;;;5074842;28;20056;-64
2023/07/29 04:58:29;;;;;;;2.50;1.80;;;;;20.70;97888.00;;;;5091852;28;20135;-65
2023/07/29 05:00:57;;;;;;;4.10;2.10;;;;;20.60;97891.00;;;;5091715;28;20048;-65
2023/07/29 05:03:24;;;;;;;3.15;2.40;;;;;20.60;97877.00;;;;5091518;28;20048;-65
2023/07/29 05:05:51;;;;;;;3.22;2.03;;;;;20.70;97868.00;;;;5091549;28;20054;-65
2023/07/29 05:08:18;;;;;;;3.88;2.28;;;;;20.70;97873.00;;;;5091729;28;20068;-65
2023/07/29 05:10:48;;;;;;;2.60;2.20;;;;;20.80;97885.00;;;;5091084;28;20077;-65
2023/07/29 05:13:14;;;;;;;2.42;2.05;;;;;20.80;97885.00;;;;5092818;28;20641;-65
2023/07/29 05:15:41;;;;;;;1.77;1.67;;;;;20.80;97889.00;;;;5092722;28;20097;-65
2023/07/29 05:18:07;;;;;;;3.08;2.05;;;;;20.80;97896.00;;;;5091317;28;20052;-65
2023/07/29 05:20:34;;;;;;;4.93;2.28;;;;;20.80;97887.00;;;;5091503;28;20056;-65
2023/07/29 05:23:01;;;;;;;4.60;2.00;;;;;20.80;97877.00;;;;5091467;28;20048;-64
2023/07/29 05:25:28;;;;;;;2.55;1.60;;;;;20.90;97890.00;;;;5091233;28;20074;-65
2023/07/29 05:27:55;;;;;;;1.70;1.60;;;;;20.90;97884.00;;;;5091338;28;20086;-65
2023/07/29 05:30:22;;;;;;;3.13;2.00;;;;;20.90;97884.00;;;;5091288;28;20052;-65
2023/07/29 05:32:49;;;;;;;4.85;2.38;;;;;20.80;97898.00;;;;5090916;28;20191;-65
2023/07/29 05:35:15;;;;;;;3.85;2.67;;;;;20.70;97894.00;;;;5091332;28;20125;-65
2023/07/29 05:37:42;;;;;;;9.68;2.90;;;;;20.70;97897.00;;;;5091225;28;20063;-65
2023/07/29 05:40:09;;;;;;;3.30;2.60;;;;;20.70;97889.00;;;;5090635;28;20043;-65
2023/07/29 05:42:37;;;;;;;2.85;2.65;;;;;20.80;97882.00;;;;5090644;28;20097;-65
2023/07/29 05:45:04;;;;;;;3.15;2.95;;;;;20.80;97880.00;;;;5091047;28;20044;-65
2023/07/29 05:47:31;;;;;;;4.40;3.22;;;;;20.80;97893.00;;;;5091267;28;20094;-64
2023/07/29 05:49:57;;;;;;;4.38;2.80;;;;;20.80;97884.00;;;;5092543;28;20043;-64
2023/07/29 05:52:27;;;;;;;3.83;3.05;;;;;20.90;97890.00;;;;5091170;28;20388;-64
2023/07/29 05:54:53;;;;;;;4.65;2.70;;;;;20.90;97890.00;;;;5091353;28;20072;-64
2023/07/29 05:57:20;;;;;;;4.30;2.97;;;;;21.00;97888.00;;;;5091292;28;20180;-64
2023/07/29 05:59:47;;;;;;;4.28;3.13;;;;;21.00;97884.00;;;;5090880;28;20062;-65
2023/07/29 06:02:13;;;;;;;2.78;2.58;;;;;21.00;97886.00;;;;5091335;28;20048;-64
2023/07/29 06:04:40;;;;;;;3.20;2.47;;;;;21.10;97882.00;;;;5091497;28;20098;-64
2023/07/29 06:07:07;;;;;;;3.47;2.17;;;;;21.20;97880.00;;;;5091156;28;20040;-63
2023/07/29 06:09:34;;;;;;;3.88;2.53;;;;;21.20;97890.00;;;;5090923;28;20048;-63
2023/07/29 06:12:02;;;;;;;2.40;2.20;;;;;21.30;97893.00;;;;5091035;28;20072;-62
2023/07/29 06:14:28;;;;;;;2.85;1.90;;;;;21.30;97903.00;;;;5091985;28;20072;-63
2023/07/29 06:16:55;;;;;;;3.25;2.20;;;;;21.30;97909.00;;;;5091290;28;20483;-63
2023/07/29 06:19:21;;;;;;;3.42;2.40;;;;;21.40;97910.00;;;;5090822;28;20052;-63
2023/07/29 06:21:48;;;;;;;5.20;2.30;;;;;21.40;97900.00;;;;5090945;28;20044;-62
2023/07/29 06:24:15;;;;;;;2.38;2.17;;;;;21.50;97911.00;;;;5090760;28;20473;-62
2023/07/29 06:26:41;;;;;;;2.08;1.85;;;;;21.60;97910.00;;;;5092063;28;20036;-63
2023/07/29 06:29:08;;;;;;;3.20;1.80;;;;;21.70;97913.00;;;;5092020;28;20056;-63
2023/07/29 06:31:34;;;;;;;2.90;1.98;;;;;21.70;97914.00;;;;5092286;28;20040;-62
2023/07/29 06:34:01;;;;;;;2.47;1.92;;;;;21.70;97916.00;;;;5091703;28;20129;-62
2023/07/29 06:36:28;;;;;;;3.20;2.35;;;;;21.80;97920.00;;;;5092212;28;20127;-63
2023/07/29 06:38:54;;;;;;;5.60;2.15;;;;;21.70;97923.00;;;;5092318;28;20065;-62
2023/07/29 06:41:21;;;;;;;1.63;1.52;;;;;21.80;97925.00;;;;5091597;28;20044;-62
2023/07/29 06:43:48;;;;;;;1.73;1.60;;;;;22.00;97914.00;;;;5090734;28;20050;-64
2023/07/29 06:46:15;;;;;;;3.55;1.90;;;;;22.30;97917.00;;;;5092178;28;20044;-64
2023/07/29 06:48:42;;;;;;;1.80;1.70;;;;;22.30;97918.00;;;;5092040;28;20040;-63
2023/07/29 06:51:09;;;;;;;3.80;2.00;;;;;22.30;97919.00;;;;5090420;28;20043;-62
2023/07/29 06:53:35;;;;;;;2.95;1.83;;;;;22.30;97921.00;;;;5091785;28;20128;-63
2023/07/29 06:56:02;;;;;;;2.85;2.00;;;;;22.30;97915.00;;;;5077144;28;20047;-63
2023/07/29 06:58:29;;;;;;;3.30;1.90;;;;;22.30;97926.00;;;;5094095;28;20048;-63
2023/07/29 07:00:58;;;;;;;4.03;1.85;;;;;22.20;97932.00;;;;5095006;28;20040;-63
2023/07/29 07:03:25;;;;;;;4.40;2.45;;;;;22.00;97953.00;;;;5077235;28;20039;-63
2023/07/29 07:05:52;;;;;;;3.88;2.47;;;;;21.80;97959.00;;;;5095368;28;20048;-64
2023/07/29 07:08:19;;;;;;;1.13;1.05;;;;;21.40;97970.00;;;;5095341;28;20097;-64
2023/07/29 07:10:49;;;;;;;2.42;1.38;;;;;21.10;97965.00;;;;5094826;28;20040;-63
2023/07/29 07:13:15;;;;;;;4.75;1.42;;;;;20.90;97965.00;;;;5093690;28;20048;-64
2023/07/29 07:15:42;;;;;;;2.78;0.93;;;;;20.70;97958.00;;;;5095640;28;20040;-63
2023/07/29 07:18:09;;;;;;;2.08;1.13;;;;;20.60;97980.00;;;;5077407;28;20539;-62
2023/07/29 07:20:36;;;;;;;1.73;1.00;;;;;20.50;97986.00;;;;5095100;28;20051;-62
2023/07/29 07:23:05;;;;;;;3.17;1.30;;;;;20.40;97969.00;;;;5094991;28;20051;-62
2023/07/29 07:25:31;;;;;;;2.13;1.10;;;;;20.50;97973.00;;;;5095065;28;20066;-63
2023/07/29 07:27:58;;;;;;;1.13;1.00;;;;;20.50;97975.00;;;;5095275;28;20549;-62
2023/07/29 07:30:25;;;;;;;2.13;1.10;;;;;20.50;97972.00;;;;5094932;28;20040;-63
2023/07/29 07:32:51;;;;;;;1.20;0.88;;;;;20.50;97964.00;;;;5094815;28;20050;-63
2023/07/29 07:35:18;;;;;;;2.22;1.50;;;;;20.70;97961.00;;;;5094734;28;20047;-63
2023/07/29 07:37:45;;;;;;;11.50;3.30;;;;;21.00;97954.00;;;;5095025;28;20040;-63
2023/07/29 07:40:12;;;;;;;4.40;1.98;;;;;21.40;97970.00;;;;5094691;28;20123;-61
2023/07/29 07:42:38;;;;;;;5.03;1.17;;;;;21.50;97970.00;;;;5094899;28;20044;-62
2023/07/29 07:45:05;;;;;;;2.50;1.10;;;;;21.70;97975.00;;;;5094995;28;20059;-63
2023/07/29 07:47:32;;;;;;;2.35;1.40;;;;;21.90;97965.00;;;;5095082;28;20528;-62
2023/07/29 07:49:58;;;;;;;3.13;1.20;;;;;22.10;97974.00;;;;5094510;28;20447;-63
2023/07/29 07:52:25;;;;;;;1.42;1.13;;;;;22.20;97971.00;;;;5094543;28;20437;-62
2023/07/29 07:54:53;;;;;;;6.50;1.50;;;;;22.10;97987.00;;;;5094701;28;20461;-62
2023/07/29 07:57:21;;;;;;;4.55;1.90;;;;;22.00;97976.00;;;;5094008;28;20058;-63
2023/07/29 07:59:48;;;;;;;2.17;1.25;;;;;22.00;97974.00;;;;5094086;28;20123;-63
2023/07/29 08:02:14;;;;;;;2.28;1.40;;;;;22.00;97973.00;;;;5094634;28;20040;-64
2023/07/29 08:04:41;;;;;;;6.05;4.40;;;;;22.00;97965.00;;;;5094274;28;20128;-64
2023/07/29 08:07:07;;;;;;;1.67;1.40;;;;;22.20;97956.00;;;;5094066;28;20119;-64
2023/07/29 08:09:34;;;;;;;1.60;1.30;;;;;22.40;97950.00;;;;5093238;28;20105;-63
2023/07/29 08:12:00;;;;;;;2.47;1.23;;;;;22.50;97949.00;;;;5094088;28;20100;-63
2023/07/29 08:14:27;;;;;;;2.45;1.13;;;;;22.70;97952.00;;;;5094047;28;20066;-64
2023/07/29 08:16:54;;;;;;;2.90;1.25;;;;;22.80;97974.00;;;;5094438;28;20063;-64
2023/07/29 08:19:20;;;;;;;2.33;1.13;;;;;22.80;97969.00;;;;5093823;28;20044;-64
2023/07/29 08:21:48;;;;;;;1.42;1.00;;;;;22.70;97965.00;;;;5094025;28;20488;-65
2023/07/29 08:24:15;;;;;;;2.58;1.20;;;;;22.80;97967.00;;;;5093885;28;20126;-65
2023/07/29 08:26:41;;;;;;;2.15;1.25;;;;;22.90;97973.00;;;;5093800;28;20044;-65
2023/07/29 08:29:08;;;;;;;2.65;1.20;;;;;23.00;97979.00;;;;5093510;28;20062;-64
2023/07/29 08:31:34;;;;;;;1.95;1.20;;;;;23.20;97977.00;;;;5093862;28;20548;-65
2023/07/29 08:34:01;;;;;;;4.30;1.13;;;;;23.10;97972.00;;;;5093562;28;20044;-65
2023/07/29 08:36:28;;;;;;;1.45;1.20;;;;;23.10;97973.00;;;;5093803;28;20052;-65
2023/07/29 08:38:55;;;;;;;4.45;1.48;;;;;23.10;97978.00;;;;5092497;28;20048;-65
2023/07/29 08:41:26;;;;;;;3.80;1.60;;;;;23.10;97984.00;;;;5093283;28;20554;-65
2023/07/29 08:44:06;;;;;;;2.55;1.73;;;;;23.10;97985.00;;;;5093577;28;20043;-65
2023/07/29 08:46:35;;;;;;;2.58;1.30;;;;;23.20;97987.00;;;;5093678;28;20071;-65
2023/07/29 08:49:03;;;;;;;2.70;1.50;;;;;23.20;97987.00;;;;5093572;28;20047;-65
2023/07/29 08:51:31;;;;;;;1.45;1.20;;;;;23.30;97984.00;;;;5093315;28;20043;-65
2023/07/29 08:53:59;;;;;;;2.47;1.40;;;;;23.40;97966.00;;;;5093114;28;20154;-65
2023/07/29 08:56:26;;;;;;;2.13;1.55;;;;;23.40;97984.00;;;;5093142;28;20127;-65
2023/07/29 08:58:53;;;;;;;3.40;1.42;;;;;23.40;97980.00;;;;5093354;28;20397;-65
2023/07/29 09:01:20;;;;;;;1.75;1.65;;;;;23.60;97969.00;;;;5092926;28;20048;-65
2023/07/29 09:03:48;;;;;;;2.35;1.27;;;;;23.70;97963.00;;;;5092980;28;20506;-65
2023/07/29 09:06:16;;;;;;;2.08;1.60;;;;;23.90;97967.00;;;;5093106;28;20044;-65
2023/07/29 09:08:44;;;;;;;3.25;1.38;;;;;24.20;97960.00;;;;5092885;28;20067;-65
2023/07/29 09:11:14;;;;;;;3.38;1.52;;;;;24.40;97959.00;;;;5091433;28;20089;-65
2023/07/29 09:13:40;;;;;;;1.63;1.40;;;;;24.50;97953.00;;;;5092644;28;20044;-65
2023/07/29 09:16:08;;;;;;;1.38;1.27;;;;;24.60;97950.00;;;;5092767;28;20043;-65
2023/07/29 09:18:35;;;;;;;4.13;1.52;;;;;24.60;97953.00;;;;5091378;28;20036;-68
2023/07/29 09:21:02;;;;;;;4.75;1.90;;;;;24.50;97947.00;;;;5092580;28;20040;-65
2023/07/29 09:23:28;;;;;;;1.67;1.33;;;;;24.40;97952.00;;;;5093026;28;20390;-65
2023/07/29 09:26:02;;;;;;;2.15;1.95;;;;;24.50;97943.00;;;;5092240;28;20067;-65
2023/07/29 09:28:34;;;;;;;3.58;2.65;;;;;24.40;97946.00;;;;5092501;28;20501;-65
2023/07/29 09:31:02;;;;;;;2.20;1.50;;;;;24.40;97952.00;;;;5092538;28;20071;-65
2023/07/29 09:33:31;;;;;;;1.90;1.48;;;;;24.30;97959.00;;;;5092636;28;20286;-65
2023/07/29 09:35:58;;;;;;;2.78;2.00;;;;;24.40;97959.00;;;;5093681;28;20047;-65
2023/07/29 09:38:27;;;;;;;2.83;1.55;;;;;24.40;97953.00;;;;5093360;28;20067;-65
2023/07/29 09:40:56;;;;;;;1.75;1.63;;;;;24.50;97957.00;;;;5092231;28;20046;-65
2023/07/29 09:43:32;;;;;;;1.65;1.52;;;;;24.60;97954.00;;;;5092609;28;20059;-65
2023/07/29 09:46:04;;;;;;;2.00;1.60;;;;;24.90;97961.00;;;;5092530;28;20144;-65
2023/07/29 09:48:38;;;;;;;1.40;1.30;;;;;25.10;97961.00;;;;5091295;28;20043;-65
2023/07/29 09:51:12;;;;;;;1.45;1.33;;;;;25.20;97949.00;;;;5092151;28;20048;-65
2023/07/29 09:53:43;;;;;;;1.70;1.60;;;;;25.40;97951.00;;;;5092237;28;20072;-65
2023/07/29 09:56:14;;;;;;;3.40;1.58;;;;;25.70;97952.00;;;;5090843;28;20040;-65
2023/07/29 09:58:43;;;;;;;2.28;1.80;;;;;25.80;97955.00;;;;5092237;28;20481;-64
2023/07/29 10:01:10;;;;;;;1.83;1.73;;;;;25.80;97964.00;;;;5090865;28;20048;-64
2023/07/29 10:03:37;;;;;;;1.58;1.48;;;;;25.50;97967.00;;;;5092574;28;20040;-65
2023/07/29 10:06:05;;;;;;;1.40;1.30;;;;;25.30;97969.00;;;;5092190;28;20052;-65
2023/07/29 10:08:35;;;;;;;2.10;1.42;;;;;25.10;97968.00;;;;5092223;28;20119;-65
2023/07/29 10:11:02;;;;;;;2.55;1.42;;;;;25.10;97968.00;;;;5090811;28;20056;-65
2023/07/29 10:13:28;;;;;;;1.40;1.30;;;;;25.10;97972.00;;;;5092077;28;20618;-65
2023/07/29 10:15:55;;;;;;;3.20;1.30;;;;;24.90;97960.00;;;;5092176;28;20040;-65
2023/07/29 10:18:23;;;;;;;2.60;1.20;;;;;25.00;97969.00;;;;5090788;28;20079;-66
2023/07/29 10:20:52;;;;;;;1.80;1.60;;;;;25.10;97964.00;;;;5090733;28;20050;-65
2023/07/29 10:23:21;;;;;;;1.40;1.30;;;;;25.40;97970.00;;;;5092119;28;20557;-66
2023/07/29 10:25:59;;;;;;;1.27;1.17;;;;;25.70;97968.00;;;;5073835;28;20452;-64
2023/07/29 10:28:29;;;;;;;2.75;1.88;;;;;26.10;97966.00;;;;5090740;28;20500;-65
2023/07/29 10:30:59;;;;;;;1.30;1.10;;;;;26.30;97967.00;;;;5095472;28;20040;-64
2023/07/29 10:33:26;;;;;;;1.60;1.50;;;;;26.60;97975.00;;;;5096100;28;20044;-65
2023/07/29 10:35:54;;;;;;;1.67;1.23;;;;;26.80;97980.00;;;;5095787;28;20056;-63
2023/07/29 10:38:24;;;;;;;1.73;1.30;;;;;26.90;97969.00;;;;5095958;28;20044;-64
2023/07/29 10:40:58;;;;;;;3.35;1.50;;;;;27.10;97969.00;;;;5095668;28;20048;-63
2023/07/29 10:43:37;;;;;;;1.30;1.20;;;;;27.20;97970.00;;;;5095844;28;20059;-64
2023/07/29 10:46:18;;;;;;;4.50;1.48;;;;;27.30;97976.00;;;;5095836;28;20044;-63
2023/07/29 10:48:54;;;;;;;2.88;1.20;;;;;27.30;97976.00;;;;5094584;28;20047;-64
2023/07/29 10:51:29;;;;;;;1.98;1.10;;;;;27.20;97986.00;;;;5095593;28;20097;-63
2023/07/29 10:54:01;;;;;;;4.05;1.25;;;;;26.80;97997.00;;;;5095509;28;20059;-64
2023/07/29 10:56:28;;;;;;;2.63;1.50;;;;;26.40;97999.00;;;;5095390;28;20141;-63
2023/07/29 10:58:57;;;;;;;1.88;1.00;;;;;26.20;98000.00;;;;5095555;28;20040;-64
2023/07/29 11:01:32;;;;;;;1.90;1.75;;;;;26.00;98002.00;;;;5095325;28;20044;-64
2023/07/29 11:04:21;;;;;;;1.45;1.33;;;;;25.70;97995.00;;;;5095245;28;20093;-63
2023/07/29 11:07:03;;;;;;;3.15;1.42;;;;;25.80;97996.00;;;;5095739;28;20040;-64
2023/07/29 11:09:48;;;;;;;1.52;1.20;;;;;25.90;97976.00;;;;5094972;28;20048;-63
2023/07/29 11:12:37;;;;;;;2.33;1.55;;;;;26.10;97989.00;;;;5095279;28;20044;-64
2023/07/29 11:15:14;;;;;;;1.88;1.13;;;;;26.10;97986.00;;;;5095180;28;20046;-63
2023/07/29 11:17:47;;;;;;;1.80;1.45;;;;;26.30;97986.00;;;;5095145;28;20068;-63
2023/07/29 11:20:15;;;;;;;3.80;1.67;;;;;26.40;97987.00;;;;5093747;28;20048;-63
2023/07/29 11:22:42;;;;;;;2.15;1.30;;;;;26.60;97990.00;;;;5094941;28;20101;-63
2023/07/29 11:25:11;;;;;;;1.48;1.23;;;;;26.70;97991.00;;;;5094902;28;20047;-63
2023/07/29 11:27:38;;;;;;;2.75;1.52;;;;;26.70;97974.00;;;;5094596;28;20047;-64
2023/07/29 11:30:07;;;;;;;1.90;1.52;;;;;26.80;97982.00;;;;5094738;28;20557;-63
2023/07/29 11:32:35;;;;;;;1.80;1.67;;;;;27.00;97976.00;;;;5094859;28;20390;-63
2023/07/29 11:35:07;;;;;;;1.63;1.52;;;;;27.00;97982.00;;;;5094837;28;20492;-64
2023/07/29 11:37:34;;;;;;;2.33;1.40;;;;;27.00;97986.00;;;;5094757;28;20118;-64
2023/07/29 11:40:02;;;;;;;1.40;1.30;;;;;26.90;97987.00;;;;5094257;28;20101;-64
2023/07/29 11:42:31;;;;;;;3.13;1.40;;;;;26.70;97986.00;;;;5094779;28;20503;-64
2023/07/29 11:45:00;;;;;;;1.40;1.20;;;;;26.50;97988.00;;;;5093782;28;20044;-64
2023/07/29 11:47:27;;;;;;;1.50;1.40;;;;;26.40;97988.00;;;;5094790;28;20040;-64
2023/07/29 11:49:53;;;;;;;3.95;1.65;;;;;26.30;97990.00;;;;5094334;28;20040;-65
2023/07/29 11:52:20;;;;;;;1.90;0.95;;;;;26.20;97989.00;;;;5094361;28;20105;-64
2023/07/29 11:54:48;;;;;;;1.67;1.20;;;;;26.10;97989.00;;;;5094497;28;20079;-65
2023/07/29 11:57:18;;;;;;;1.10;1.00;;;;;26.10;97986.00;;;;5094189;28;20067;-65
2023/07/29 11:59:46;;;;;;;1.20;1.10;;;;;26.00;97996.00;;;;5093949;28;20101;-63
2023/07/29 12:02:17;;;;;;;1.73;1.15;;;;;26.00;97984.00;;;;5094206;28;20050;-63
2023/07/29 12:04:46;;;;;;;2.92;1.35;;;;;26.20;97986.00;;;;5094126;28;20119;-63
2023/07/29 12:07:14;;;;;;;2.05;1.35;;;;;26.30;97986.00;;;;5094268;28;20047;-63
2023/07/29 12:09:42;;;;;;;2.30;1.85;;;;;26.40;97982.00;;;;5093886;28;20457;-63
2023/07/29 12:12:09;;;;;;;3.05;1.08;;;;;26.50;97982.00;;;;5093940;28;20481;-63
2023/07/29 12:14:36;;;;;;;2.20;1.33;;;;;26.70;97978.00;;;;5094085;28;20040;-63
2023/07/29 12:17:05;;;;;;;1.50;1.20;;;;;27.10;97967.00;;;;5093959;28;20044;-63
2023/07/29 12:19:34;;;;;;;1.50;1.23;;;;;27.20;97980.00;;;;5093598;28;20044;-63
2023/07/29 12:22:05;;;;;;;1.20;1.10;;;;;27.10;97986.00;;;;5093820;28;20032;-63